Time;durP1;ratioP1;P1;durP2;ratioP2;P2;SDS_P1;SDS_P2;PMS_P1;PMS_P2;Temp;Humidity;BMP_temperature;BMP_pressure;BME280_temperature;BME280_humidity;BME280_pressure;Samples;Min_cycle;Max_cycle;Signal;HPM_P1;HPM_P2
2023/06/19 00:02:08;;;;;;;9.63;8.30;;;21.50;64.80;;;;;;5049508;28;20437;-68
2023/06/19 00:04:34;;;;;;;9.67;8.67;;;21.50;64.90;;;;;;5050640;28;20049;-68
2023/06/19 00:07:00;;;;;;;10.50;8.60;;;21.50;65.00;;;;;;5046195;28;20120;-68
2023/06/19 00:09:26;;;;;;;10.10;7.97;;;21.50;65.10;;;;;;5050163;28;20700;-68
2023/06/19 00:11:51;;;;;;;9.13;7.90;;;21.50;65.00;;;;;;5049108;28;20037;-68
2023/06/19 00:14:17;;;;;;;10.13;8.10;;;21.50;64.70;;;;;;5050312;28;20165;-68
2023/06/19 00:16:44;;;;;;;11.00;8.10;;;21.50;64.50;;;;;;5049713;28;20037;-68
2023/06/19 00:19:11;;;;;;;8.57;7.70;;;21.50;64.50;;;;;;5046616;28;20037;-68
2023/06/19 00:21:38;;;;;;;8.27;7.47;;;21.50;64.50;;;;;;5049652;28;20349;-68
2023/06/19 00:24:04;;;;;;;8.20;7.33;;;21.50;64.90;;;;;;5050340;28;20283;-68
2023/06/19 00:26:30;;;;;;;8.67;7.50;;;21.50;64.90;;;;;;5049486;28;20348;-67
2023/06/19 00:28:56;;;;;;;10.57;7.80;;;21.40;65.20;;;;;;5048233;28;20423;-67
2023/06/19 00:31:22;;;;;;;9.07;8.13;;;21.40;65.30;;;;;;5049355;28;20143;-67
2023/06/19 00:33:48;;;;;;;9.00;8.10;;;21.40;65.40;;;;;;5049962;28;20044;-67
2023/06/19 00:36:19;;;;;;;9.63;7.77;;;21.40;65.90;;;;;;5049621;28;20126;-67
2023/06/19 00:38:46;;;;;;;8.57;7.73;;;21.40;65.90;;;;;;5049278;28;20043;-67
2023/06/19 00:41:12;;;;;;;8.77;7.97;;;21.40;65.90;;;;;;5049976;28;20102;-68
2023/06/19 00:43:38;;;;;;;9.73;7.30;;;21.40;65.90;;;;;;5049153;28;20037;-67
2023/06/19 00:46:04;;;;;;;9.13;8.23;;;21.40;65.80;;;;;;5049941;28;20045;-67
2023/06/19 00:48:31;;;;;;;9.50;7.80;;;21.40;66.00;;;;;;5049106;28;20099;-67
2023/06/19 00:50:57;;;;;;;9.60;8.23;;;21.40;66.00;;;;;;5050290;28;20041;-68
2023/06/19 00:53:24;;;;;;;10.40;8.57;;;21.40;66.00;;;;;;5050066;28;20102;-68
2023/06/19 00:55:56;;;;;;;10.33;8.30;;;21.30;66.10;;;;;;5049435;28;20283;-68
2023/06/19 00:58:22;;;;;;;9.93;8.00;;;21.40;66.10;;;;;;5048384;28;20072;-68
2023/06/19 01:00:48;;;;;;;11.37;7.97;;;21.30;66.10;;;;;;5049430;28;20069;-67
2023/06/19 01:03:15;;;;;;;10.93;8.97;;;21.30;66.50;;;;;;5049503;28;20115;-67
2023/06/19 01:05:41;;;;;;;9.87;8.37;;;21.30;66.50;;;;;;5040974;28;20041;-68
2023/06/19 01:08:36;;;;;;;10.97;8.47;;;21.30;66.40;;;;;;5048568;28;20037;-68
2023/06/19 01:11:03;;;;;;;8.65;7.82;;;21.20;66.80;;;;;;5046229;28;20041;-67
2023/06/19 01:13:44;;;;;;;10.37;8.20;;;21.20;66.70;;;;;;5049213;28;20415;-67
2023/06/19 01:16:11;;;;;;;11.03;8.43;;;21.20;66.80;;;;;;5047847;28;20280;-67
2023/06/19 01:18:37;;;;;;;9.40;8.40;;;21.20;66.90;;;;;;5041238;28;20687;-67
2023/06/19 01:21:16;;;;;;;10.60;8.73;;;21.10;67.00;;;;;;5048743;28;20044;-68
2023/06/19 01:23:42;;;;;;;11.53;9.20;;;21.10;67.00;;;;;;5049339;28;20065;-68
2023/06/19 01:26:08;;;;;;;11.93;9.00;;;21.10;66.60;;;;;;5049137;28;20124;-68
2023/06/19 01:28:39;;;;;;;9.60;8.57;;;21.10;66.70;;;;;;5048544;28;20132;-68
2023/06/19 01:31:13;;;;;;;9.50;8.53;;;21.10;66.60;;;;;;5048721;28;20311;-68
2023/06/19 01:33:42;;;;;;;11.37;8.63;;;21.10;66.50;;;;;;5048812;28;20041;-68
2023/06/19 01:36:08;;;;;;;10.77;8.40;;;21.00;66.40;;;;;;5056719;28;20279;-67
2023/06/19 01:38:35;;;;;;;12.97;8.63;;;21.00;66.20;;;;;;5046392;28;20493;-68
2023/06/19 01:41:02;;;;;;;9.07;8.17;;;21.00;65.60;;;;;;5030481;28;20283;-67
2023/06/19 01:43:31;;;;;;;9.33;8.37;;;21.10;65.10;;;;;;5048617;28;20060;-67
2023/06/19 01:45:58;;;;;;;10.10;8.50;;;21.10;64.80;;;;;;5031306;28;20287;-68
2023/06/19 01:48:24;;;;;;;9.43;8.13;;;21.10;64.40;;;;;;5046191;28;20048;-67
2023/06/19 01:50:51;;;;;;;11.67;8.67;;;21.10;64.00;;;;;;5047290;28;20314;-68
2023/06/19 01:53:17;;;;;;;11.03;8.77;;;21.10;63.60;;;;;;5046539;28;20303;-68
2023/06/19 01:55:43;;;;;;;10.50;8.90;;;21.10;63.40;;;;;;5032586;28;20037;-68
2023/06/19 01:58:08;;;;;;;9.83;8.83;;;21.10;63.50;;;;;;5048503;28;20267;-67
2023/06/19 02:00:35;;;;;;;9.80;8.33;;;21.00;63.40;;;;;;5048109;28;20291;-67
2023/06/19 02:03:04;;;;;;;9.20;8.30;;;21.00;63.40;;;;;;5063005;28;20509;-67
2023/06/19 02:05:31;;;;;;;10.77;8.23;;;21.00;63.40;;;;;;5031287;28;20427;-67
2023/06/19 02:07:57;;;;;;;12.00;8.53;;;21.00;63.40;;;;;;5051707;28;20295;-67
2023/06/19 02:10:22;;;;;;;9.23;8.00;;;21.00;63.30;;;;;;5047529;28;20299;-67
2023/06/19 02:12:48;;;;;;;9.83;8.37;;;21.00;63.30;;;;;;5043742;28;20094;-68
2023/06/19 02:15:14;;;;;;;9.43;8.43;;;20.90;63.30;;;;;;5046400;28;20031;-68
2023/06/19 02:17:42;;;;;;;8.27;7.47;;;20.90;63.20;;;;;;5030986;28;20033;-68
2023/06/19 02:20:09;;;;;;;9.63;8.63;;;20.90;63.20;;;;;;5047109;28;20045;-68
2023/06/19 02:22:35;;;;;;;9.80;8.73;;;20.90;63.10;;;;;;5045520;28;20037;-68
2023/06/19 02:25:01;;;;;;;10.17;8.10;;;20.80;63.00;;;;;;5047969;28;20358;-67
2023/06/19 02:27:26;;;;;;;9.53;8.53;;;20.80;62.80;;;;;;5030047;28;20143;-67
2023/06/19 02:29:52;;;;;;;10.27;8.53;;;20.80;62.80;;;;;;5046818;28;20057;-67
2023/06/19 02:32:18;;;;;;;9.80;8.37;;;20.80;62.80;;;;;;5047219;28;20048;-67
2023/06/19 02:34:45;;;;;;;10.87;8.23;;;20.70;63.00;;;;;;5048118;28;20043;-68
2023/06/19 02:37:10;;;;;;;9.17;8.27;;;20.70;62.80;;;;;;5036896;28;20041;-67
2023/06/19 02:39:36;;;;;;;10.37;7.97;;;20.70;62.60;;;;;;5047903;28;20790;-67
2023/06/19 02:42:02;;;;;;;11.03;8.30;;;20.80;62.40;;;;;;5047242;28;20130;-67
2023/06/19 02:44:28;;;;;;;12.33;8.73;;;20.80;62.40;;;;;;5030638;28;20040;-67
2023/06/19 02:46:53;;;;;;;10.17;8.03;;;20.80;62.40;;;;;;5028806;28;20451;-67
2023/06/19 02:49:19;;;;;;;9.30;8.30;;;20.80;62.50;;;;;;5045446;28;20047;-67
2023/06/19 02:51:45;;;;;;;9.93;8.87;;;20.80;62.80;;;;;;5047336;28;20095;-68
2023/06/19 02:54:11;;;;;;;10.53;8.70;;;20.90;63.00;;;;;;5030243;28;20033;-68
2023/06/19 02:56:38;;;;;;;10.37;8.07;;;20.90;63.20;;;;;;5047829;28;20488;-68
2023/06/19 02:59:04;;;;;;;11.03;8.47;;;20.90;63.10;;;;;;5047080;28;20043;-68
2023/06/19 03:01:30;;;;;;;11.00;8.73;;;20.90;63.20;;;;;;5047099;28;20044;-68
2023/06/19 03:03:55;;;;;;;9.97;8.47;;;20.90;63.10;;;;;;5046288;28;20135;-67
2023/06/19 03:06:21;;;;;;;9.33;8.27;;;20.90;63.40;;;;;;5064252;28;20037;-67
2023/06/19 03:08:47;;;;;;;9.53;8.63;;;20.90;63.60;;;;;;5047456;28;20041;-68
2023/06/19 03:11:13;;;;;;;10.60;8.50;;;20.80;63.80;;;;;;5046306;28;20039;-68
2023/06/19 03:13:51;;;;;;;9.73;8.10;;;20.80;64.10;;;;;;5045988;28;20043;-68
2023/06/19 03:16:17;;;;;;;10.63;7.93;;;20.80;64.30;;;;;;5046671;28;20064;-68
2023/06/19 03:18:46;;;;;;;11.10;8.10;;;20.70;64.30;;;;;;5040781;28;20400;-68
2023/06/19 03:21:16;;;;;;;9.07;8.07;;;20.70;64.70;;;;;;5063222;28;20295;-67
2023/06/19 03:23:42;;;;;;;10.33;8.07;;;20.60;64.80;;;;;;5029657;28;20032;-67
2023/06/19 03:26:10;;;;;;;10.70;7.70;;;20.60;65.30;;;;;;5046683;28;20802;-67
2023/06/19 03:28:36;;;;;;;7.93;6.17;;;20.60;66.20;;;;;;5046990;28;20544;-67
2023/06/19 03:31:01;;;;;;;9.30;6.13;;;20.50;67.50;;;;;;5030242;28;20132;-67
2023/06/19 03:33:27;;;;;;;6.87;5.50;;;20.50;67.80;;;;;;5046123;28;20644;-67
2023/06/19 03:35:53;;;;;;;4.70;4.10;;;20.50;68.70;;;;;;5044449;28;20427;-67
2023/06/19 03:38:19;;;;;;;6.10;4.37;;;20.40;70.10;;;;;;5046773;28;20041;-67
2023/06/19 03:40:44;;;;;;;4.83;2.93;;;20.40;70.80;;;;;;5046586;28;20489;-67
2023/06/19 03:43:10;;;;;;;5.90;2.60;;;20.40;71.30;;;;;;5046859;28;20037;-67
2023/06/19 03:45:36;;;;;;;5.47;3.10;;;20.40;72.10;;;;;;5045007;28;20045;-67
2023/06/19 03:48:02;;;;;;;3.70;3.10;;;20.30;72.70;;;;;;5044524;28;20291;-67
2023/06/19 03:50:28;;;;;;;6.73;2.80;;;20.30;73.20;;;;;;5041418;28;20700;-67
2023/06/19 03:52:54;;;;;;;5.10;3.20;;;20.20;73.60;;;;;;5046983;28;20296;-67
2023/06/19 03:55:19;;;;;;;4.37;3.60;;;20.20;74.00;;;;;;5045754;28;20045;-67
2023/06/19 03:57:45;;;;;;;6.00;4.40;;;20.20;74.00;;;;;;5046185;28;20529;-67
2023/06/19 04:00:12;;;;;;;5.10;3.83;;;20.20;73.70;;;;;;5046465;28;20033;-67
2023/06/19 04:02:41;;;;;;;5.03;3.83;;;20.20;73.60;;;;;;5046884;28;20116;-67
2023/06/19 04:05:07;;;;;;;6.00;3.50;;;20.10;73.50;;;;;;5044605;28;20302;-67
2023/06/19 04:07:33;;;;;;;7.50;3.03;;;20.10;73.70;;;;;;5045666;28;20295;-67
2023/06/19 04:09:59;;;;;;;3.83;3.00;;;20.20;73.80;;;;;;5046590;28;20124;-67
2023/06/19 04:12:25;;;;;;;4.47;2.60;;;20.20;74.10;;;;;;5046432;28;20194;-67
2023/06/19 04:14:50;;;;;;;3.40;2.63;;;20.20;74.20;;;;;;5046542;28;20045;-67
2023/06/19 04:17:17;;;;;;;3.37;2.33;;;20.20;74.30;;;;;;5045730;28;20484;-67
2023/06/19 04:19:43;;;;;;;5.57;2.83;;;20.30;74.60;;;;;;5045088;28;20043;-67
2023/06/19 04:22:08;;;;;;;3.37;2.40;;;20.30;74.50;;;;;;5040325;28;20292;-67
2023/06/19 04:24:35;;;;;;;6.30;2.97;;;20.30;75.10;;;;;;5044653;28;20047;-67
2023/06/19 04:27:01;;;;;;;4.27;2.90;;;20.30;75.20;;;;;;5045441;28;20400;-67
2023/06/19 04:29:31;;;;;;;7.43;2.93;;;20.30;75.10;;;;;;5045530;28;20286;-67
2023/06/19 04:32:03;;;;;;;4.70;3.23;;;20.40;75.10;;;;;;5045793;28;20303;-67
2023/06/19 04:34:29;;;;;;;4.40;2.60;;;20.40;75.30;;;;;;5063300;28;20287;-67
2023/06/19 04:36:58;;;;;;;4.83;2.67;;;20.50;75.40;;;;;;5035795;28;20045;-67
2023/06/19 04:39:24;;;;;;;3.80;2.97;;;20.50;75.50;;;;;;5045823;28;20283;-67
2023/06/19 04:41:50;;;;;;;4.10;2.77;;;20.60;75.50;;;;;;5040255;28;20418;-67
2023/06/19 04:44:16;;;;;;;4.73;2.67;;;20.60;75.60;;;;;;5044338;28;20373;-67
2023/06/19 04:46:43;;;;;;;4.80;3.03;;;20.80;75.40;;;;;;5028752;28;20036;-67
2023/06/19 04:49:10;;;;;;;4.60;3.07;;;20.80;75.40;;;;;;5046974;28;20080;-67
2023/06/19 04:51:35;;;;;;;5.67;3.43;;;20.90;75.40;;;;;;5049277;28;20304;-67
2023/06/19 04:54:02;;;;;;;5.77;3.40;;;21.00;75.20;;;;;;5047666;28;20048;-67
2023/06/19 04:56:28;;;;;;;5.30;4.33;;;21.00;74.80;;;;;;5032451;28;20048;-67
2023/06/19 04:58:55;;;;;;;6.10;4.60;;;21.10;74.90;;;;;;5030279;28;20037;-67
2023/06/19 05:01:27;;;;;;;6.30;3.93;;;21.00;75.30;;;;;;5048884;28;20049;-67
2023/06/19 05:03:54;;;;;;;5.60;5.00;;;21.00;75.60;;;;;;5049456;28;20575;-67
2023/06/19 05:06:23;;;;;;;5.53;4.80;;;20.90;76.00;;;;;;5049358;28;20037;-67
2023/06/19 05:08:49;;;;;;;6.60;5.70;;;20.90;76.40;;;;;;5049172;28;20037;-67
2023/06/19 05:11:14;;;;;;;7.80;6.03;;;20.80;76.60;;;;;;5048883;28;20052;-67
2023/06/19 05:13:40;;;;;;;7.20;6.03;;;20.80;77.00;;;;;;5048768;28;20094;-67
2023/06/19 05:16:06;;;;;;;10.60;7.30;;;20.80;77.40;;;;;;5048183;28;20464;-67
2023/06/19 05:18:31;;;;;;;9.50;8.07;;;20.80;78.20;;;;;;5043130;28;20123;-67
2023/06/19 05:20:57;;;;;;;9.77;8.77;;;20.80;78.50;;;;;;5043434;28;20512;-67
2023/06/19 05:23:23;;;;;;;11.37;8.97;;;20.80;79.20;;;;;;5031338;28;20512;-67
2023/06/19 05:25:48;;;;;;;10.87;9.30;;;20.80;79.70;;;;;;5048966;28;20049;-67
2023/06/19 05:28:14;;;;;;;13.30;9.83;;;20.90;79.60;;;;;;5052360;28;20045;-67
2023/06/19 05:30:40;;;;;;;14.57;13.03;;;21.00;79.40;;;;;;5030826;28;20045;-67
2023/06/19 05:33:05;;;;;;;22.60;16.77;;;21.10;79.40;;;;;;5048703;28;20336;-67
2023/06/19 05:35:31;;;;;;;21.47;19.10;;;21.20;79.90;;;;;;5063633;28;20063;-67
2023/06/19 05:37:57;;;;;;;28.50;24.07;;;21.30;79.70;;;;;;5048432;28;20037;-67
2023/06/19 05:40:23;;;;;;;27.07;24.13;;;21.40;80.10;;;;;;5047342;28;20082;-67
2023/06/19 05:42:49;;;;;;;29.97;26.77;;;21.40;80.20;;;;;;5049030;28;20071;-67
2023/06/19 05:45:15;;;;;;;31.00;27.70;;;21.40;80.50;;;;;;5048272;28;20452;-67
2023/06/19 05:47:41;;;;;;;31.53;28.27;;;21.50;80.30;;;;;;5048351;28;20047;-67
2023/06/19 05:50:07;;;;;;;32.10;28.10;;;21.40;80.90;;;;;;5044544;28;20489;-67
2023/06/19 05:52:32;;;;;;;29.87;26.67;;;21.40;81.50;;;;;;5048733;28;20041;-67
2023/06/19 05:54:58;;;;;;;29.57;25.70;;;21.30;81.30;;;;;;5047851;28;20041;-67
2023/06/19 05:57:24;;;;;;;30.87;25.90;;;21.30;81.10;;;;;;5048128;28;20072;-67
2023/06/19 05:59:50;;;;;;;29.87;26.17;;;21.20;81.80;;;;;;5047926;28;20482;-67
2023/06/19 06:02:18;;;;;;;32.13;28.40;;;21.10;81.80;;;;;;5048266;28;20517;-67
2023/06/19 06:04:44;;;;;;;37.17;30.03;;;21.00;81.90;;;;;;5047717;28;20102;-67
2023/06/19 06:07:10;;;;;;;32.57;27.90;;;20.90;82.30;;;;;;5047810;28;20037;-67
2023/06/19 06:09:35;;;;;;;34.27;27.17;;;20.80;82.50;;;;;;5047702;28;20130;-67
2023/06/19 06:12:01;;;;;;;31.17;27.87;;;20.90;82.00;;;;;;5031799;28;20041;-67
2023/06/19 06:14:27;;;;;;;35.70;28.27;;;20.90;81.90;;;;;;5031738;28;20051;-67
2023/06/19 06:16:53;;;;;;;32.33;25.00;;;20.90;81.80;;;;;;5066436;28;20024;-69
2023/06/19 06:19:25;;;;;;;30.57;24.57;;;20.90;81.50;;;;;;5048332;28;20126;-67
2023/06/19 06:21:51;;;;;;;29.93;24.70;;;20.90;81.50;;;;;;5030173;28;20044;-68
2023/06/19 06:24:17;;;;;;;33.40;26.50;;;20.70;82.40;;;;;;5049213;28;20051;-68
2023/06/19 06:26:43;;;;;;;37.83;27.73;;;20.70;82.70;;;;;;5048764;28;20100;-68
2023/06/19 06:29:09;;;;;;;37.90;28.47;;;20.50;83.50;;;;;;5065435;28;20033;-68
2023/06/19 06:31:37;;;;;;;39.90;29.77;;;20.20;85.40;;;;;;5047509;28;20049;-68
2023/06/19 06:34:04;;;;;;;48.50;32.67;;;20.10;86.30;;;;;;5044630;28;20096;-68
2023/06/19 06:36:29;;;;;;;50.93;32.87;;;19.90;87.60;;;;;;5036143;28;20838;-68
2023/06/19 06:38:55;;;;;;;46.23;32.63;;;19.70;89.30;;;;;;5035305;28;20374;-72
2023/06/19 06:41:21;;;;;;;47.67;31.20;;;19.60;89.80;;;;;;5031109;28;20409;-68
2023/06/19 06:43:46;;;;;;;55.07;32.20;;;19.60;90.50;;;;;;5048575;28;20033;-67
2023/06/19 06:46:12;;;;;;;52.40;32.30;;;19.50;91.80;;;;;;5048274;28;20048;-67
2023/06/19 06:48:38;;;;;;;53.13;30.03;;;19.30;92.50;;;;;;5064539;28;20051;-68
2023/06/19 06:51:03;;;;;;;53.77;32.07;;;19.30;92.60;;;;;;5047607;28;20041;-67
2023/06/19 06:53:31;;;;;;;54.77;33.83;;;19.30;93.20;;;;;;5047500;28;20079;-67
2023/06/19 06:55:59;;;;;;;55.47;31.93;;;19.20;94.00;;;;;;5047623;28;20056;-67
2023/06/19 06:58:25;;;;;;;54.87;31.70;;;19.20;94.30;;;;;;5047598;28;20367;-67
2023/06/19 07:00:51;;;;;;;51.93;31.60;;;19.10;94.60;;;;;;5048077;28;20370;-68
2023/06/19 07:03:18;;;;;;;45.53;29.43;;;19.10;95.20;;;;;;5043732;28;20099;-67
2023/06/19 07:05:44;;;;;;;46.10;28.27;;;19.10;94.60;;;;;;5057012;28;20068;-67
2023/06/19 07:08:09;;;;;;;43.73;28.90;;;19.20;94.00;;;;;;5042366;28;20836;-67
2023/06/19 07:10:35;;;;;;;41.93;27.37;;;19.20;94.20;;;;;;5047571;28;20079;-67
2023/06/19 07:13:01;;;;;;;43.57;26.93;;;19.20;94.10;;;;;;5047400;28;20111;-67
2023/06/19 07:15:26;;;;;;;36.60;25.27;;;19.30;93.70;;;;;;5062987;28;20079;-67
2023/06/19 07:17:52;;;;;;;36.80;24.03;;;19.30;93.20;;;;;;5048307;28;20040;-70
2023/06/19 07:20:18;;;;;;;35.83;22.90;;;19.40;92.70;;;;;;5048635;28;20128;-68
2023/06/19 07:22:44;;;;;;;37.30;23.60;;;19.40;92.10;;;;;;5061134;28;20036;-69
2023/06/19 07:25:11;;;;;;;36.07;25.00;;;19.40;92.00;;;;;;5045458;28;20048;-67
2023/06/19 07:27:38;;;;;;;34.23;24.03;;;19.30;92.00;;;;;;5061631;28;20288;-68
2023/06/19 07:30:04;;;;;;;34.83;23.20;;;19.30;92.80;;;;;;5065093;28;20640;-68
2023/06/19 07:32:30;;;;;;;30.30;21.37;;;19.40;92.60;;;;;;5045671;28;20306;-69
2023/06/19 07:34:56;;;;;;;31.53;21.33;;;19.40;92.60;;;;;;5046913;28;20283;-68
2023/06/19 07:37:21;;;;;;;29.30;20.73;;;19.40;92.20;;;;;;5037278;28;20041;-68
2023/06/19 07:39:49;;;;;;;27.70;18.20;;;19.50;91.70;;;;;;5038468;28;20040;-68
2023/06/19 07:42:16;;;;;;;25.90;17.90;;;19.50;91.00;;;;;;5044987;28;20485;-68
2023/06/19 07:44:42;;;;;;;24.13;15.63;;;19.50;90.90;;;;;;5042854;28;20314;-69
2023/06/19 07:47:08;;;;;;;19.23;13.30;;;19.60;90.20;;;;;;5046346;28;20303;-68
2023/06/19 07:49:35;;;;;;;14.63;11.93;;;19.60;89.90;;;;;;5041352;28;20890;-69
2023/06/19 07:52:01;;;;;;;17.17;12.43;;;19.60;90.10;;;;;;5054206;28;20306;-69
2023/06/19 07:54:26;;;;;;;16.07;12.50;;;19.50;90.60;;;;;;5028310;28;20288;-69
2023/06/19 07:56:52;;;;;;;14.70;11.67;;;19.50;91.40;;;;;;5056797;28;20044;-69
2023/06/19 07:59:18;;;;;;;16.60;12.20;;;19.60;91.60;;;;;;5034846;28;20033;-68
2023/06/19 08:01:44;;;;;;;14.50;11.23;;;19.60;91.60;;;;;;5043484;28;20528;-68
2023/06/19 08:04:10;;;;;;;18.07;12.37;;;19.60;90.40;;;;;;5056384;28;20073;-69
2023/06/19 08:06:35;;;;;;;16.27;12.27;;;19.60;90.10;;;;;;5028759;28;20283;-69
2023/06/19 08:09:02;;;;;;;19.33;13.17;;;19.50;90.60;;;;;;5014418;28;20466;-68
2023/06/19 08:11:28;;;;;;;16.17;12.33;;;19.40;91.10;;;;;;5043633;28;20037;-69
2023/06/19 08:13:53;;;;;;;17.50;13.00;;;19.30;91.20;;;;;;5047457;28;20292;-69
2023/06/19 08:16:19;;;;;;;20.07;13.70;;;19.20;91.60;;;;;;5043023;28;20037;-69
2023/06/19 08:18:46;;;;;;;17.77;13.50;;;19.10;91.60;;;;;;5045158;28;20036;-68
2023/06/19 08:21:12;;;;;;;19.80;14.47;;;19.10;90.90;;;;;;5045592;28;20045;-68
2023/06/19 08:23:39;;;;;;;17.00;14.00;;;19.00;90.70;;;;;;5050771;28;20347;-69
2023/06/19 08:26:05;;;;;;;17.67;14.23;;;19.00;90.70;;;;;;5051795;28;20763;-68
2023/06/19 08:28:32;;;;;;;19.53;14.67;;;19.10;90.10;;;;;;5066131;28;20290;-69
2023/06/19 08:30:58;;;;;;;23.20;14.67;;;19.20;89.50;;;;;;5045799;28;20668;-69
2023/06/19 08:33:24;;;;;;;19.30;15.43;;;19.20;89.20;;;;;;5045995;28;20286;-68
2023/06/19 08:35:49;;;;;;;24.47;16.57;;;19.30;89.20;;;;;;5042342;28;20170;-68
2023/06/19 08:38:15;;;;;;;23.73;16.70;;;19.40;88.20;;;;;;5042592;28;20283;-68
2023/06/19 08:40:43;;;;;;;22.60;16.30;;;19.40;87.90;;;;;;5064522;28;20045;-68
2023/06/19 08:43:08;;;;;;;25.93;16.90;;;19.30;87.80;;;;;;5031062;28;20114;-68
2023/06/19 08:45:34;;;;;;;20.60;15.53;;;19.30;87.50;;;;;;5046298;28;20288;-68
2023/06/19 08:48:04;;;;;;;20.00;16.40;;;19.30;87.30;;;;;;5046559;28;20045;-68
2023/06/19 08:50:33;;;;;;;26.07;17.53;;;19.30;87.20;;;;;;5048937;28;20061;-68
2023/06/19 08:52:59;;;;;;;21.87;16.27;;;19.20;88.30;;;;;;5049257;28;20698;-68
2023/06/19 08:55:25;;;;;;;25.60;17.50;;;19.20;87.80;;;;;;5043967;28;20499;-68
2023/06/19 08:57:52;;;;;;;21.17;16.50;;;19.20;88.20;;;;;;5047616;28;20136;-68
2023/06/19 09:00:29;;;;;;;21.60;16.83;;;19.20;87.10;;;;;;5039767;28;20114;-68
2023/06/19 09:03:03;;;;;;;22.07;16.73;;;19.10;87.00;;;;;;5045068;28;20299;-68
2023/06/19 09:05:29;;;;;;;21.90;16.20;;;19.10;87.90;;;;;;5057863;28;20353;-68
2023/06/19 09:08:02;;;;;;;24.33;17.07;;;19.10;87.70;;;;;;5046294;28;20382;-68
2023/06/19 09:10:29;;;;;;;24.13;16.30;;;19.20;87.60;;;;;;5048936;28;20426;-68
2023/06/19 09:13:02;;;;;;;24.00;16.67;;;19.20;87.20;;;;;;5058243;28;20310;-68
2023/06/19 09:15:35;;;;;;;23.30;16.60;;;19.30;87.10;;;;;;5049744;28;20668;-68
2023/06/19 09:18:12;;;;;;;25.03;17.33;;;19.40;86.60;;;;;;5045513;28;20791;-68
2023/06/19 09:20:44;;;;;;;19.30;15.27;;;19.50;86.00;;;;;;5044748;28;20345;-68
2023/06/19 09:23:13;;;;;;;18.80;15.03;;;19.60;84.70;;;;;;5044412;28;20291;-68
2023/06/19 09:25:54;;;;;;;21.97;17.00;;;19.70;84.50;;;;;;5043389;28;20767;-68
2023/06/19 09:28:25;;;;;;;21.93;16.10;;;19.70;84.10;;;;;;5061284;28;20291;-68
2023/06/19 09:30:59;;;;;;;21.13;16.17;;;19.70;84.20;;;;;;5047839;28;20667;-68
2023/06/19 09:33:27;;;;;;;29.88;18.02;;;19.70;83.60;;;;;;5040450;28;20296;-68
2023/06/19 09:35:55;;;;;;;27.47;17.30;;;19.50;84.10;;;;;;5047426;28;20037;-68
2023/06/19 09:38:24;;;;;;;25.47;18.63;;;19.30;85.00;;;;;;5047752;28;20283;-68
2023/06/19 09:40:51;;;;;;;28.90;19.63;;;19.30;85.30;;;;;;5048189;28;20276;-68
2023/06/19 09:43:32;;;;;;;24.40;18.20;;;19.30;85.90;;;;;;5048140;28;20291;-68
2023/06/19 09:45:59;;;;;;;24.50;19.00;;;19.30;85.90;;;;;;5048930;28;20503;-68
2023/06/19 09:48:30;;;;;;;29.13;18.37;;;19.40;85.50;;;;;;5063621;28;20370;-68
2023/06/19 09:51:10;;;;;;;22.70;18.87;;;19.60;84.80;;;;;;5048183;28;20315;-68
2023/06/19 09:53:37;;;;;;;27.67;18.00;;;19.70;84.30;;;;;;5048112;28;20284;-68
2023/06/19 09:56:03;;;;;;;26.83;17.73;;;19.90;84.60;;;;;;5048518;28;20279;-68
2023/06/19 09:58:30;;;;;;;23.67;17.23;;;20.00;82.70;;;;;;5030399;28;20640;-68
2023/06/19 10:00:57;;;;;;;23.83;18.10;;;20.00;81.50;;;;;;5046551;28;20052;-68
2023/06/19 10:03:31;;;;;;;23.20;17.57;;;19.90;82.10;;;;;;5030002;28;20330;-68
2023/06/19 10:06:01;;;;;;;23.23;18.77;;;20.10;81.90;;;;;;5046991;28;20698;-68
2023/06/19 10:08:40;;;;;;;22.40;18.33;;;20.20;82.30;;;;;;5045769;28;20737;-68
2023/06/19 10:11:06;;;;;;;27.23;18.47;;;20.40;81.40;;;;;;5045425;28;20342;-68
2023/06/19 10:13:38;;;;;;;27.17;19.03;;;20.60;80.50;;;;;;5064809;28;20281;-68
2023/06/19 10:16:04;;;;;;;25.57;17.83;;;20.90;80.70;;;;;;5047827;28;20045;-68
2023/06/19 10:18:32;;;;;;;27.37;19.17;;;21.30;79.40;;;;;;5045245;28;20279;-68
2023/06/19 10:20:58;;;;;;;25.37;18.77;;;21.50;76.80;;;;;;5042189;28;20299;-68
2023/06/19 10:23:27;;;;;;;26.93;19.20;;;21.50;76.60;;;;;;5047855;28;20049;-68
2023/06/19 10:25:53;;;;;;;27.47;20.77;;;21.20;76.60;;;;;;5047143;28;20075;-68
2023/06/19 10:28:27;;;;;;;27.13;19.80;;;21.10;78.10;;;;;;5046630;28;20052;-68
2023/06/19 10:31:04;;;;;;;25.15;20.25;;;20.90;77.30;;;;;;5043888;28;20049;-68
2023/06/19 10:33:32;;;;;;;27.67;19.93;;;21.10;76.70;;;;;;5047786;28;20041;-68
2023/06/19 10:36:02;;;;;;;21.17;17.30;;;21.30;76.20;;;;;;5046665;28;20052;-68
2023/06/19 10:38:29;;;;;;;20.63;17.40;;;21.60;76.20;;;;;;5046558;28;20485;-68
2023/06/19 10:40:56;;;;;;;19.60;15.77;;;21.80;74.60;;;;;;5044263;28;20102;-69
2023/06/19 10:43:24;;;;;;;24.13;17.73;;;22.00;72.40;;;;;;5029889;28;20044;-68
2023/06/19 10:45:51;;;;;;;23.53;17.33;;;22.00;72.40;;;;;;5047282;28;20118;-68
2023/06/19 10:48:22;;;;;;;23.77;17.90;;;21.80;71.70;;;;;;5047346;28;20131;-68
2023/06/19 10:50:48;;;;;;;28.27;20.57;;;21.70;72.70;;;;;;5047088;28;20123;-68
2023/06/19 10:53:27;;;;;;;28.07;19.90;;;21.50;73.10;;;;;;5045246;28;20033;-68
2023/06/19 10:56:01;;;;;;;30.27;21.27;;;21.40;74.00;;;;;;5046198;28;20335;-68
2023/06/19 10:58:29;;;;;;;28.40;19.40;;;21.10;73.60;;;;;;5048405;28;20401;-68
2023/06/19 11:00:56;;;;;;;32.27;22.03;;;21.00;74.20;;;;;;5048231;28;20142;-68
2023/06/19 11:03:22;;;;;;;25.00;19.50;;;21.00;75.30;;;;;;5063354;28;20067;-68
2023/06/19 11:05:48;;;;;;;26.30;20.23;;;21.20;75.60;;;;;;5046591;28;20509;-68
2023/06/19 11:08:22;;;;;;;28.93;20.07;;;21.50;74.10;;;;;;5047469;28;20071;-68
2023/06/19 11:10:48;;;;;;;23.80;18.40;;;21.80;72.90;;;;;;5046689;28;20538;-68
2023/06/19 11:13:18;;;;;;;22.80;17.77;;;22.10;72.50;;;;;;5042848;28;20972;-68
2023/06/19 11:15:45;;;;;;;26.17;19.37;;;22.40;70.60;;;;;;5047881;28;20144;-68
2023/06/19 11:18:14;;;;;;;23.77;19.80;;;22.40;68.80;;;;;;5044700;28;20800;-68
2023/06/19 11:20:49;;;;;;;22.67;18.97;;;22.40;69.60;;;;;;5060129;28;20036;-67
2023/06/19 11:23:14;;;;;;;;;;;22.40;69.80;;;;;;5064251;28;20049;-68
2023/06/19 11:25:41;;;;;;;25.57;18.77;;;22.00;70.70;;;;;;5044715;28;19923;-68
2023/06/19 11:28:14;;;;;;;21.60;17.43;;;21.80;70.50;;;;;;5022414;28;20047;-68
2023/06/19 11:30:44;;;;;;;23.33;18.73;;;21.90;70.80;;;;;;5038602;28;20060;-68
2023/06/19 11:33:16;;;;;;;24.53;20.67;;;21.90;69.60;;;;;;5058815;28;20492;-68
2023/06/19 11:35:51;;;;;;;21.97;17.87;;;21.80;72.00;;;;;;5043348;28;20048;-68
2023/06/19 11:38:19;;;;;;;21.88;16.67;;;22.10;71.10;;;;;;5035524;28;20040;-69
2023/06/19 11:40:45;;;;;;;18.57;15.37;;;22.30;70.20;;;;;;5042342;28;20048;-68
2023/06/19 11:43:11;;;;;;;20.23;16.43;;;22.60;69.10;;;;;;5046750;28;20037;-68
2023/06/19 11:45:52;;;;;;;17.10;13.03;;;22.70;68.40;;;;;;5041634;28;20045;-69
2023/06/19 11:48:26;;;;;;;16.00;13.60;;;22.70;67.80;;;;;;5026940;28;20056;-69
2023/06/19 11:50:53;;;;;;;15.30;12.25;;;22.70;67.40;;;;;;5045730;28;20029;-69
2023/06/19 11:53:20;;;;;;;20.47;14.13;;;22.70;67.70;;;;;;5060421;28;20045;-69
2023/06/19 11:55:46;;;;;;;16.10;13.10;;;22.70;67.80;;;;;;5044259;28;20047;-69
2023/06/19 11:58:12;;;;;;;16.50;11.37;;;22.80;67.00;;;;;;5033517;28;20508;-69
2023/06/19 12:00:37;;;;;;;15.37;10.83;;;22.70;66.80;;;;;;5046961;28;20079;-70
2023/06/19 12:03:06;;;;;;;14.87;11.93;;;22.50;67.00;;;;;;5046053;28;20037;-69
2023/06/19 12:05:32;;;;;;;19.17;12.93;;;22.50;66.90;;;;;;5043282;28;20045;-70
2023/06/19 12:07:58;;;;;;;14.27;12.50;;;22.40;67.50;;;;;;5039963;28;20048;-69
2023/06/19 12:10:23;;;;;;;17.77;13.20;;;22.50;68.40;;;;;;5036235;28;20049;-69
2023/06/19 12:12:49;;;;;;;15.77;12.00;;;22.50;68.60;;;;;;5043730;28;21395;-69
2023/06/19 12:15:15;;;;;;;15.67;13.00;;;22.80;67.60;;;;;;5027004;28;20044;-69
2023/06/19 12:17:41;;;;;;;16.47;11.13;;;22.90;67.10;;;;;;5028666;28;20047;-69
2023/06/19 12:20:08;;;;;;;12.47;11.17;;;22.90;67.10;;;;;;5042529;28;20048;-69
2023/06/19 12:22:42;;;;;;;13.20;10.50;;;23.00;66.00;;;;;;5058104;28;20041;-69
2023/06/19 12:25:08;;;;;;;16.07;11.40;;;23.10;66.30;;;;;;5040659;28;20052;-70
2023/06/19 12:27:34;;;;;;;15.57;11.07;;;23.30;65.30;;;;;;5039880;28;20037;-69
2023/06/19 12:30:00;;;;;;;11.33;9.50;;;23.30;66.10;;;;;;5039002;28;20564;-69
2023/06/19 12:32:25;;;;;;;13.63;11.23;;;23.30;63.70;;;;;;5042320;28;20081;-69
2023/06/19 12:34:53;;;;;;;13.37;10.87;;;23.30;65.00;;;;;;5039744;28;20093;-68
2023/06/19 12:37:20;;;;;;;12.90;9.60;;;23.30;65.30;;;;;;5038761;28;20085;-68